sensor_id;sensor_type;location;lat;lon;timestamp;pressure;altitude;pressure_sealevel;temperature;humidity
71903;BME280;59778;50.310;18.780;2023-07-29T00:11:06;98107.00;;;17.09;100.00
71903;BME280;59778;50.310;18.780;2023-07-29T00:26:27;98107.31;;;17.12;100.00
71903;BME280;59778;50.310;18.780;2023-07-29T00:41:50;98096.03;;;17.30;100.00
71903;BME280;59778;50.310;18.780;2023-07-29T00:57:13;98082.53;;;17.46;100.00
71903;BME280;59778;50.310;18.780;2023-07-29T01:12:37;98088.06;;;17.51;100.00
71903;BME280;59778;50.310;18.780;2023-07-29T01:28:01;98084.97;;;17.64;100.00
71903;BME280;59778;50.310;18.780;2023-07-29T01:43:23;98081.47;;;17.52;100.00
71903;BME280;59778;50.310;18.780;2023-07-29T01:58:46;98102.69;;;17.56;100.00
71903;BME280;59778;50.310;18.780;2023-07-29T02:14:08;98109.69;;;17.64;100.00
71903;BME280;59778;50.310;18.780;2023-07-29T02:29:29;98114.13;;;17.48;100.00
71903;BME280;59778;50.310;18.780;2023-07-29T02:44:51;98113.22;;;17.42;100.00
71903;BME280;59778;50.310;18.780;2023-07-29T03:00:12;98116.78;;;17.21;100.00
71903;BME280;59778;50.310;18.780;2023-07-29T03:15:34;98128.03;;;17.03;100.00
71903;BME280;59778;50.310;18.780;2023-07-29T03:30:56;98118.03;;;16.75;100.00
71903;BME280;59778;50.310;18.780;2023-07-29T03:46:17;98129.91;;;16.81;100.00
71903;BME280;59778;50.310;18.780;2023-07-29T04:01:42;98138.28;;;16.91;100.00
71903;BME280;59778;50.310;18.780;2023-07-29T04:17:10;98149.78;;;17.26;100.00
71903;BME280;59778;50.310;18.780;2023-07-29T04:32:32;98155.06;;;17.71;100.00
71903;BME280;59778;50.310;18.780;2023-07-29T04:47:53;98157.47;;;18.11;100.00
71903;BME280;59778;50.310;18.780;2023-07-29T05:03:14;98166.00;;;18.36;100.00
71903;BME280;59778;50.310;18.780;2023-07-29T05:18:36;98178.75;;;18.74;100.00
71903;BME280;59778;50.310;18.780;2023-07-29T05:33:58;98178.97;;;19.05;100.00
71903;BME280;59778;50.310;18.780;2023-07-29T05:49:20;98174.03;;;19.44;100.00
71903;BME280;59778;50.310;18.780;2023-07-29T06:04:41;98184.19;;;19.95;100.00
71903;BME280;59778;50.310;18.780;2023-07-29T06:20:02;98203.69;;;20.51;100.00
71903;BME280;59778;50.310;18.780;2023-07-29T06:35:24;98209.28;;;21.32;100.00
71903;BME280;59778;50.310;18.780;2023-07-29T06:50:45;98219.78;;;21.35;100.00
71903;BME280;59778;50.310;18.780;2023-07-29T07:06:07;98216.47;;;21.17;100.00
71903;BME280;59778;50.310;18.780;2023-07-29T07:21:28;98211.84;;;22.13;99.47
71903;BME280;59778;50.310;18.780;2023-07-29T07:36:50;98213.75;;;23.10;91.09
71903;BME280;59778;50.310;18.780;2023-07-29T07:52:12;98213.16;;;23.47;88.99
71903;BME280;59778;50.310;18.780;2023-07-29T08:07:33;98211.34;;;23.32;87.54
71903;BME280;59778;50.310;18.780;2023-07-29T08:22:55;98191.91;;;23.66;81.36
71903;BME280;59778;50.310;18.780;2023-07-29T08:38:17;98194.13;;;24.12;79.23
71903;BME280;59778;50.310;18.780;2023-07-29T08:53:39;98175.50;;;24.73;76.37
71903;BME280;59778;50.310;18.780;2023-07-29T09:09:01;98172.38;;;25.31;73.23
71903;BME280;59778;50.310;18.780;2023-07-29T09:24:22;98162.38;;;24.41;76.32
71903;BME280;59778;50.310;18.780;2023-07-29T09:39:45;98151.31;;;25.57;72.36
71903;BME280;59778;50.310;18.780;2023-07-29T09:55:06;98138.19;;;24.98;69.65
71903;BME280;59778;50.310;18.780;2023-07-29T10:10:29;98116.03;;;24.93;69.88
71903;BME280;59778;50.310;18.780;2023-07-29T10:25:55;98118.44;;;26.00;66.78
71903;BME280;59778;50.310;18.780;2023-07-29T10:41:22;98113.00;;;25.95;66.11
71903;BME280;59778;50.310;18.780;2023-07-29T10:56:48;98108.38;;;25.91;63.46
71903;BME280;59778;50.310;18.780;2023-07-29T11:12:38;98100.06;;;26.13;62.78
71903;BME280;59778;50.310;18.780;2023-07-29T11:28:00;98090.28;;;27.18;60.61
71903;BME280;59778;50.310;18.780;2023-07-29T11:43:22;98077.56;;;27.26;58.34
71903;BME280;59778;50.310;18.780;2023-07-29T11:58:43;98079.09;;;26.65;59.08
71903;BME280;59778;50.310;18.780;2023-07-29T12:14:07;98059.84;;;27.61;58.46
71903;BME280;59778;50.310;18.780;2023-07-29T12:29:28;98049.53;;;26.55;59.95
71903;BME280;59778;50.310;18.780;2023-07-29T12:44:49;98030.84;;;27.88;58.81
71903;BME280;59778;50.310;18.780;2023-07-29T13:00:11;98042.09;;;28.31;53.94
71903;BME280;59778;50.310;18.780;2023-07-29T13:15:33;98015.94;;;28.18;54.65
71903;BME280;59778;50.310;18.780;2023-07-29T13:30:54;97998.06;;;27.45;53.92
71903;BME280;59778;50.310;18.780;2023-07-29T13:46:16;97986.84;;;28.02;51.53
71903;BME280;59778;50.310;18.780;2023-07-29T14:01:37;97969.72;;;27.60;52.92
71903;BME280;59778;50.310;18.780;2023-07-29T14:16:58;97966.75;;;27.65;53.76
71903;BME280;59778;50.310;18.780;2023-07-29T14:32:19;97935.91;;;27.53;53.33
71903;BME280;59778;50.310;18.780;2023-07-29T14:47:40;97930.47;;;27.48;55.16
71903;BME280;59778;50.310;18.780;2023-07-29T15:03:02;97932.31;;;28.22;55.37
71903;BME280;59778;50.310;18.780;2023-07-29T15:18:23;97953.25;;;28.88;53.22
71903;BME280;59778;50.310;18.780;2023-07-29T15:33:45;97955.25;;;27.50;57.50
71903;BME280;59778;50.310;18.780;2023-07-29T15:49:06;97958.91;;;25.91;62.71
71903;BME280;59778;50.310;18.780;2023-07-29T16:04:28;97923.38;;;25.39;66.09
71903;BME280;59778;50.310;18.780;2023-07-29T16:19:55;97912.28;;;24.84;69.03
71903;BME280;59778;50.310;18.780;2023-07-29T16:35:16;97903.50;;;24.63;68.85
71903;BME280;59778;50.310;18.780;2023-07-29T16:50:38;97928.38;;;24.55;67.79
71903;BME280;59778;50.310;18.780;2023-07-29T17:05:59;97942.34;;;23.24;70.40
71903;BME280;59778;50.310;18.780;2023-07-29T17:21:20;97938.31;;;22.92;72.30
71903;BME280;59778;50.310;18.780;2023-07-29T17:36:41;97938.63;;;22.04;74.49
71903;BME280;59778;50.310;18.780;2023-07-29T17:52:03;97931.00;;;21.91;74.37
71903;BME280;59778;50.310;18.780;2023-07-29T18:07:25;97946.63;;;21.67;74.57
71903;BME280;59778;50.310;18.780;2023-07-29T18:22:46;97956.72;;;21.43;77.35
71903;BME280;59778;50.310;18.780;2023-07-29T18:38:09;97958.50;;;21.19;78.81
71903;BME280;59778;50.310;18.780;2023-07-29T18:53:31;97994.84;;;20.51;83.98
71903;BME280;59778;50.310;18.780;2023-07-29T19:08:52;98001.75;;;20.18;88.09
71903;BME280;59778;50.310;18.780;2023-07-29T19:24:13;98011.38;;;20.01;91.28
71903;BME280;59778;50.310;18.780;2023-07-29T19:39:34;98010.56;;;20.05;92.96
71903;BME280;59778;50.310;18.780;2023-07-29T19:54:55;98007.22;;;19.78;96.88
71903;BME280;59778;50.310;18.780;2023-07-29T20:10:17;97984.84;;;19.54;100.00
71903;BME280;59778;50.310;18.780;2023-07-29T20:25:38;98012.94;;;19.56;100.00
71903;BME280;59778;50.310;18.780;2023-07-29T20:41:00;97988.31;;;19.29;100.00
71903;BME280;59778;50.310;18.780;2023-07-29T20:56:21;97999.03;;;19.21;100.00
71903;BME280;59778;50.310;18.780;2023-07-29T21:11:42;98014.47;;;19.27;100.00
71903;BME280;59778;50.310;18.780;2023-07-29T21:27:04;98007.84;;;19.23;99.74
71903;BME280;59778;50.310;18.780;2023-07-29T21:42:25;98037.00;;;19.14;99.38
71903;BME280;59778;50.310;18.780;2023-07-29T21:57:47;98028.19;;;19.17;98.54
71903;BME280;59778;50.310;18.780;2023-07-29T22:13:08;98021.09;;;19.26;98.29
71903;BME280;59778;50.310;18.780;2023-07-29T22:28:30;98022.06;;;19.05;100.00
71903;BME280;59778;50.310;18.780;2023-07-29T22:43:52;98034.56;;;19.22;100.00
71903;BME280;59778;50.310;18.780;2023-07-29T22:59:13;98025.88;;;18.94;100.00
71903;BME280;59778;50.310;18.780;2023-07-29T23:14:34;98053.53;;;19.19;100.00
71903;BME280;59778;50.310;18.780;2023-07-29T23:29:55;98052.97;;;19.12;100.00
71903;BME280;59778;50.310;18.780;2023-07-29T23:45:19;98064.31;;;19.25;100.00
